createdAt,value
2022-11-22T00:04:17.091Z,1.45
2022-11-22T00:09:37.668Z,1.43
2022-11-22T00:14:58.629Z,1.41
2022-11-22T00:20:19.056Z,1.37
2022-11-22T00:25:39.827Z,1.27
2022-11-22T00:31:00.581Z,1.11
2022-11-22T00:36:21.587Z,1.21
2022-11-22T00:41:42.508Z,1.25
2022-11-22T00:47:03.679Z,1.28
2022-11-22T00:52:24.297Z,1.37
2022-11-22T00:57:44.967Z,1.44
2022-11-22T01:03:05.846Z,1.59
2022-11-22T01:08:26.641Z,1.57
2022-11-22T01:13:47.586Z,1.64
2022-11-22T01:19:08.402Z,1.70
2022-11-22T01:24:29.305Z,1.64
2022-11-22T01:29:49.966Z,1.71
2022-11-22T01:35:10.892Z,1.76
2022-11-22T01:40:31.442Z,1.90
2022-11-22T01:46:01.743Z,2.06
2022-11-22T01:51:42.700Z,2.08
2022-11-22T01:57:07.031Z,2.25
2022-11-22T02:02:28.152Z,2.14
2022-11-22T02:08:00.676Z,2.04
2022-11-22T02:13:22.687Z,1.90
2022-11-22T02:18:43.201Z,1.91
2022-11-22T02:24:07.492Z,2.01
2022-11-22T02:29:28.840Z,1.97
2022-11-22T02:34:50.289Z,2.18
2022-11-22T02:40:13.709Z,2.11
2022-11-22T02:45:34.471Z,2.14
2022-11-22T02:50:55.427Z,1.97
2022-11-22T02:56:16.676Z,2.05
2022-11-22T03:01:38.064Z,2.25
2022-11-22T03:06:59.839Z,2.30
2022-11-22T03:12:20.428Z,2.46
2022-11-22T03:17:41.296Z,2.47
2022-11-22T03:23:01.993Z,2.59
2022-11-22T03:28:22.823Z,2.50
2022-11-22T03:33:43.387Z,2.47
2022-11-22T03:39:04.277Z,2.58
2022-11-22T03:44:25.120Z,2.63
2022-11-22T03:49:45.708Z,2.66
2022-11-22T03:55:06.504Z,2.52
2022-11-22T04:00:27.263Z,2.39
2022-11-22T04:05:48.023Z,2.28
2022-11-22T04:11:08.533Z,1.98
2022-11-22T04:16:29.275Z,1.64
2022-11-22T04:21:50.222Z,1.45
2022-11-22T04:27:10.996Z,1.45
2022-11-22T04:32:46.974Z,1.27
2022-11-22T04:38:08.087Z,1.01
2022-11-22T04:43:47.971Z,0.85
2022-11-22T04:49:08.497Z,0.79
2022-11-22T04:54:29.333Z,0.74
2022-11-22T04:59:50.157Z,0.76
2022-11-22T05:05:10.938Z,0.79
2022-11-22T05:10:50.128Z,0.75
2022-11-22T05:16:11.956Z,0.82
2022-11-22T05:21:35.664Z,0.94
2022-11-22T05:26:56.305Z,1.05
2022-11-22T05:32:16.822Z,1.22
2022-11-22T05:37:37.660Z,1.19
2022-11-22T05:42:59.209Z,1.20
2022-11-22T05:48:19.789Z,1.28
2022-11-22T05:53:41.146Z,1.43
2022-11-22T05:59:02.004Z,1.45
2022-11-22T06:04:24.140Z,1.51
2022-11-22T06:09:45.034Z,1.70
2022-11-22T06:15:06.081Z,1.65
2022-11-22T06:20:27.019Z,1.65
2022-11-22T06:25:47.868Z,1.77
2022-11-22T06:31:11.807Z,1.80
2022-11-22T06:36:33.763Z,1.67
2022-11-22T06:41:54.310Z,1.65
2022-11-22T06:47:15.065Z,1.81
2022-11-22T06:52:36.035Z,1.80
2022-11-22T06:57:56.818Z,1.89
2022-11-22T07:03:17.712Z,1.88
2022-11-22T07:08:39.116Z,1.88
2022-11-22T07:14:05.316Z,1.85
2022-11-22T07:19:28.759Z,1.91
2022-11-22T07:24:49.751Z,1.92
2022-11-22T07:30:10.802Z,1.85
2022-11-22T07:35:31.482Z,1.85
2022-11-22T07:40:52.150Z,1.84
2022-11-22T07:46:23.852Z,1.85
2022-11-22T07:51:44.380Z,1.89
2022-11-22T07:57:05.136Z,1.94
2022-11-22T08:02:26.602Z,2.05
2022-11-22T08:07:47.870Z,2.04
2022-11-22T08:13:08.290Z,1.97
2022-11-22T08:18:29.252Z,1.98
2022-11-22T08:23:50.092Z,2.16
2022-11-22T08:29:14.272Z,2.26
2022-11-22T08:34:35.666Z,2.26
2022-11-22T08:39:56.402Z,2.29
2022-11-22T08:45:17.064Z,2.36
2022-11-22T08:50:37.601Z,2.17
2022-11-22T08:56:02.283Z,2.13
2022-11-22T09:01:23.715Z,2.12
2022-11-22T09:12:25.063Z,2.05
2022-11-22T09:17:45.861Z,2.07
2022-11-22T09:23:06.814Z,2.20
2022-11-22T09:28:27.989Z,2.24
2022-11-22T09:33:49.565Z,2.21
2022-11-22T09:39:10.564Z,2.18
2022-11-22T09:44:31.320Z,2.14
2022-11-22T09:50:04.476Z,2.17
2022-11-22T09:55:34.585Z,2.15
2022-11-22T10:00:57.304Z,2.19
2022-11-22T10:06:24.440Z,2.19
2022-11-22T10:11:48.051Z,2.26
2022-11-22T10:17:28.438Z,2.29
2022-11-22T10:22:49.585Z,2.39
2022-11-22T10:28:13.547Z,2.36
2022-11-22T10:33:57.633Z,2.30
2022-11-22T10:39:37.213Z,2.26
2022-11-22T10:45:04.338Z,2.19
2022-11-22T10:50:45.385Z,2.15
2022-11-22T10:56:29.108Z,2.16
2022-11-22T11:01:58.301Z,2.09
2022-11-22T11:07:23.847Z,2.12
2022-11-22T11:12:58.457Z,2.13
2022-11-22T11:18:27.318Z,2.23
2022-11-22T11:23:48.512Z,2.18
2022-11-22T11:29:18.407Z,2.19
2022-11-22T11:34:41.137Z,2.16
2022-11-22T11:40:02.685Z,2.11
2022-11-22T11:45:28.308Z,2.16
2022-11-22T11:50:49.147Z,2.20
2022-11-22T11:56:39.137Z,2.23
2022-11-22T12:02:04.707Z,2.21
2022-11-22T12:07:35.198Z,2.19
2022-11-22T12:13:04.471Z,2.27
2022-11-22T12:18:25.211Z,2.44
2022-11-22T12:23:50.733Z,2.50
2022-11-22T12:29:15.330Z,2.53
2022-11-22T12:34:42.270Z,2.68
2022-11-22T12:40:07.926Z,2.76
2022-11-22T12:45:30.714Z,2.70
2022-11-22T12:50:56.909Z,2.66
2022-11-22T12:56:17.373Z,2.84
2022-11-22T13:01:56.938Z,3.02
2022-11-22T13:07:24.067Z,3.11
2022-11-22T13:12:45.924Z,3.16
2022-11-22T13:18:10.913Z,3.19
2022-11-22T13:23:50.812Z,3.34
2022-11-22T13:29:18.819Z,3.37
2022-11-22T13:34:59.531Z,3.48
2022-11-22T13:40:26.155Z,3.54
2022-11-22T13:45:54.620Z,3.60
2022-11-22T13:51:18.686Z,3.66
2022-11-22T13:56:48.962Z,3.66
2022-11-22T14:02:23.081Z,3.59
2022-11-22T14:07:44.238Z,3.37
2022-11-22T14:13:04.988Z,3.91
2022-11-22T14:18:44.665Z,3.98
2022-11-22T14:24:08.541Z,4.08
2022-11-22T14:29:54.055Z,3.66
2022-11-22T14:35:27.980Z,3.41
2022-11-22T14:40:50.815Z,3.84
2022-11-22T14:46:45.092Z,5.31
2022-11-22T14:51:59.763Z,4.94
2022-11-22T14:57:22.071Z,4.85
2022-11-22T15:02:45.729Z,4.64
2022-11-22T15:09:19.916Z,4.35
2022-11-22T15:14:12.867Z,4.40
2022-11-22T15:59:47.011Z,4.10
2022-11-22T16:06:05.585Z,4.21
2022-11-22T16:10:50.205Z,4.29
2022-11-22T22:32:28.902Z,3.85
2022-11-22T22:37:49.994Z,3.86
2022-11-22T22:43:10.568Z,4.04
2022-11-22T22:48:31.739Z,3.93
2022-11-22T22:53:52.488Z,3.87
2022-11-22T22:59:13.099Z,3.95
2022-11-22T23:04:33.896Z,4.02
2022-11-22T23:09:54.702Z,3.98
2022-11-22T23:15:15.641Z,3.86
2022-11-22T23:20:36.089Z,3.77
2022-11-22T23:26:00.827Z,3.91
2022-11-22T23:31:21.905Z,3.81
2022-11-22T23:36:42.456Z,3.85
2022-11-22T23:42:03.384Z,3.69
2022-11-22T23:47:24.383Z,3.61
2022-11-22T23:52:45.358Z,3.55
2022-11-22T23:58:06.071Z,3.50
